sensor_id;sensor_type;location;lat;lon;timestamp;pressure;altitude;pressure_sealevel;temperature;humidity
42169;BME280;27838;43.858;25.974;2023-04-03T00:00:46;100366.59;;;15.07;47.81
42169;BME280;27838;43.858;25.974;2023-04-03T00:03:14;100370.91;;;15.10;48.10
42169;BME280;27838;43.858;25.974;2023-04-03T00:05:41;100369.16;;;15.10;47.90
42169;BME280;27838;43.858;25.974;2023-04-03T00:08:07;100371.84;;;15.07;47.97
42169;BME280;27838;43.858;25.974;2023-04-03T00:10:35;100365.75;;;15.07;48.09
42169;BME280;27838;43.858;25.974;2023-04-03T00:13:05;100382.22;;;15.14;47.88
42169;BME280;27838;43.858;25.974;2023-04-03T00:15:35;100382.22;;;15.14;47.98
42169;BME280;27838;43.858;25.974;2023-04-03T00:18:02;100383.00;;;15.17;47.69
42169;BME280;27838;43.858;25.974;2023-04-03T00:20:30;100394.34;;;15.18;48.29
42169;BME280;27838;43.858;25.974;2023-04-03T00:22:57;100377.88;;;15.11;48.09
42169;BME280;27838;43.858;25.974;2023-04-03T00:25:23;100393.56;;;15.14;47.96
42169;BME280;27838;43.858;25.974;2023-04-03T00:27:50;100390.94;;;15.14;48.08
42169;BME280;27838;43.858;25.974;2023-04-03T00:30:19;100393.75;;;15.06;48.43
42169;BME280;27838;43.858;25.974;2023-04-03T00:32:47;100391.22;;;15.02;48.69
42169;BME280;27838;43.858;25.974;2023-04-03T00:35:14;100393.78;;;15.05;48.54
42169;BME280;27838;43.858;25.974;2023-04-03T00:37:42;100397.31;;;15.02;48.47
42169;BME280;27838;43.858;25.974;2023-04-03T00:40:10;100393.06;;;14.98;48.38
42169;BME280;27838;43.858;25.974;2023-04-03T00:42:37;100390.44;;;14.98;48.56
42169;BME280;27838;43.858;25.974;2023-04-03T00:47:31;100389.56;;;14.99;48.63
42169;BME280;27838;43.858;25.974;2023-04-03T00:50:00;100388.59;;;15.02;48.44
42169;BME280;27838;43.858;25.974;2023-04-03T00:52:29;100385.16;;;15.00;48.19
42169;BME280;27838;43.858;25.974;2023-04-03T00:55:04;100384.22;;;15.02;48.31
42169;BME280;27838;43.858;25.974;2023-04-03T00:57:32;100392.88;;;15.06;48.35
42169;BME280;27838;43.858;25.974;2023-04-03T01:00:05;100378.88;;;15.05;48.03
42169;BME280;27838;43.858;25.974;2023-04-03T01:02:33;100386.06;;;14.97;48.07
42169;BME280;27838;43.858;25.974;2023-04-03T01:05:00;100385.22;;;14.97;48.15
42169;BME280;27838;43.858;25.974;2023-04-03T01:07:30;100391.31;;;14.97;47.91
42169;BME280;27838;43.858;25.974;2023-04-03T01:10:01;100393.09;;;14.97;48.05
42169;BME280;27838;43.858;25.974;2023-04-03T01:12:39;100394.31;;;14.82;48.48
42169;BME280;27838;43.858;25.974;2023-04-03T01:15:17;100399.59;;;14.80;48.52
42169;BME280;27838;43.858;25.974;2023-04-03T01:17:52;100397.09;;;14.74;48.82
42169;BME280;27838;43.858;25.974;2023-04-03T01:25:53;100391.28;;;14.61;48.87
42169;BME280;27838;43.858;25.974;2023-04-03T01:28:23;100386.78;;;14.66;48.89
42169;BME280;27838;43.858;25.974;2023-04-03T01:33:25;100393.84;;;14.64;48.49
42169;BME280;27838;43.858;25.974;2023-04-03T01:35:51;100391.25;;;14.63;48.51
42169;BME280;27838;43.858;25.974;2023-04-03T01:38:18;100393.03;;;14.61;48.81
42169;BME280;27838;43.858;25.974;2023-04-03T01:40:45;100388.72;;;14.57;48.84
42169;BME280;27838;43.858;25.974;2023-04-03T01:43:12;100389.47;;;14.63;48.71
42169;BME280;27838;43.858;25.974;2023-04-03T01:45:38;100389.50;;;14.62;48.80
42169;BME280;27838;43.858;25.974;2023-04-03T01:48:05;100391.16;;;14.66;48.35
42169;BME280;27838;43.858;25.974;2023-04-03T01:50:32;100398.97;;;14.69;48.41
42169;BME280;27838;43.858;25.974;2023-04-03T01:52:59;100397.06;;;14.76;48.18
42169;BME280;27838;43.858;25.974;2023-04-03T01:55:25;100392.72;;;14.75;48.37
42169;BME280;27838;43.858;25.974;2023-04-03T01:57:52;100388.31;;;14.77;48.11
42169;BME280;27838;43.858;25.974;2023-04-03T02:00:19;100383.97;;;14.76;47.84
42169;BME280;27838;43.858;25.974;2023-04-03T02:02:45;100392.56;;;14.82;48.16
42169;BME280;27838;43.858;25.974;2023-04-03T02:05:12;100389.13;;;14.80;48.21
42169;BME280;27838;43.858;25.974;2023-04-03T02:07:39;100380.38;;;14.78;48.23
42169;BME280;27838;43.858;25.974;2023-04-03T02:10:05;100396.00;;;14.84;47.99
42169;BME280;27838;43.858;25.974;2023-04-03T02:12:32;100399.41;;;14.88;47.82
42169;BME280;27838;43.858;25.974;2023-04-03T02:14:59;100396.81;;;14.86;47.80
42169;BME280;27838;43.858;25.974;2023-04-03T02:17:26;100395.97;;;14.86;47.97
42169;BME280;27838;43.858;25.974;2023-04-03T02:19:52;100402.91;;;14.88;48.00
42169;BME280;27838;43.858;25.974;2023-04-03T02:22:22;100397.75;;;14.85;48.28
42169;BME280;27838;43.858;25.974;2023-04-03T02:24:48;100409.97;;;14.85;48.09
42169;BME280;27838;43.858;25.974;2023-04-03T02:27:17;100407.34;;;14.85;48.03
42169;BME280;27838;43.858;25.974;2023-04-03T02:29:43;100388.34;;;14.75;48.08
42169;BME280;27838;43.858;25.974;2023-04-03T02:32:10;100406.53;;;14.83;47.89
42169;BME280;27838;43.858;25.974;2023-04-03T02:34:36;100416.19;;;14.81;48.05
42169;BME280;27838;43.858;25.974;2023-04-03T02:37:03;100406.69;;;14.77;48.03
42169;BME280;27838;43.858;25.974;2023-04-03T02:39:29;100411.97;;;14.75;48.10
42169;BME280;27838;43.858;25.974;2023-04-03T02:41:56;100426.81;;;14.75;48.13
42169;BME280;27838;43.858;25.974;2023-04-03T02:44:22;100426.91;;;14.71;48.69
42169;BME280;27838;43.858;25.974;2023-04-03T02:46:50;100426.06;;;14.69;48.41
42169;BME280;27838;43.858;25.974;2023-04-03T02:49:16;100427.84;;;14.67;48.48
42169;BME280;27838;43.858;25.974;2023-04-03T02:51:43;100432.28;;;14.65;48.53
42169;BME280;27838;43.858;25.974;2023-04-03T02:54:10;100433.22;;;14.63;48.71
42169;BME280;27838;43.858;25.974;2023-04-03T02:56:37;100418.50;;;14.54;49.00
42169;BME280;27838;43.858;25.974;2023-04-03T02:59:04;100431.53;;;14.59;48.98
42169;BME280;27838;43.858;25.974;2023-04-03T03:01:31;100437.72;;;14.54;49.25
42169;BME280;27838;43.858;25.974;2023-04-03T03:03:59;100429.03;;;14.52;49.14
42169;BME280;27838;43.858;25.974;2023-04-03T03:06:26;100428.13;;;14.53;49.10
42169;BME280;27838;43.858;25.974;2023-04-03T03:08:53;100429.91;;;14.51;49.57
42169;BME280;27838;43.858;25.974;2023-04-03T03:11:20;100427.22;;;14.54;49.16
42169;BME280;27838;43.858;25.974;2023-04-03T03:13:47;100429.00;;;14.54;49.19
42169;BME280;27838;43.858;25.974;2023-04-03T03:16:13;100434.25;;;14.54;49.21
42169;BME280;27838;43.858;25.974;2023-04-03T03:18:40;100435.06;;;14.56;49.15
42169;BME280;27838;43.858;25.974;2023-04-03T03:21:08;100445.53;;;14.58;49.38
42169;BME280;27838;43.858;25.974;2023-04-03T03:23:35;100446.34;;;14.61;49.48
42169;BME280;27838;43.858;25.974;2023-04-03T03:26:05;100445.47;;;14.61;49.38
42169;BME280;27838;43.858;25.974;2023-04-03T03:28:32;100448.03;;;14.64;49.22
42169;BME280;27838;43.858;25.974;2023-04-03T03:30:59;100450.69;;;14.62;49.36
42169;BME280;27838;43.858;25.974;2023-04-03T03:33:26;100444.59;;;14.62;49.71
42169;BME280;27838;43.858;25.974;2023-04-03T03:35:53;100443.78;;;14.58;49.61
42169;BME280;27838;43.858;25.974;2023-04-03T03:38:20;100453.47;;;14.53;49.47
42169;BME280;27838;43.858;25.974;2023-04-03T03:40:47;100449.22;;;14.49;49.33
42169;BME280;27838;43.858;25.974;2023-04-03T03:43:15;100453.63;;;14.47;49.72
42169;BME280;27838;43.858;25.974;2023-04-03T03:45:42;100465.88;;;14.45;50.30
42169;BME280;27838;43.858;25.974;2023-04-03T03:48:08;100470.47;;;14.35;50.49
42169;BME280;27838;43.858;25.974;2023-04-03T03:50:35;100474.94;;;14.28;50.76
42169;BME280;27838;43.858;25.974;2023-04-03T03:53:02;100468.06;;;14.24;50.72
42169;BME280;27838;43.858;25.974;2023-04-03T03:55:28;100478.66;;;14.16;50.81
42169;BME280;27838;43.858;25.974;2023-04-03T03:57:55;100477.22;;;14.02;50.85
42169;BME280;27838;43.858;25.974;2023-04-03T04:00:22;100471.28;;;13.90;51.34
42169;BME280;27838;43.858;25.974;2023-04-03T04:02:48;100471.44;;;13.83;51.19
42169;BME280;27838;43.858;25.974;2023-04-03T04:05:15;100460.34;;;13.67;51.30
42169;BME280;27838;43.858;25.974;2023-04-03T04:07:41;100463.25;;;13.48;51.82
42169;BME280;27838;43.858;25.974;2023-04-03T04:10:08;100472.06;;;13.44;52.09
42169;BME280;27838;43.858;25.974;2023-04-03T04:12:35;100450.38;;;13.36;52.28
42169;BME280;27838;43.858;25.974;2023-04-03T04:15:02;100459.03;;;13.39;51.82
42169;BME280;27838;43.858;25.974;2023-04-03T04:17:29;100459.94;;;13.38;52.33
42169;BME280;27838;43.858;25.974;2023-04-03T04:19:56;100449.56;;;13.32;52.05
42169;BME280;27838;43.858;25.974;2023-04-03T04:22:22;100446.75;;;13.43;51.94
42169;BME280;27838;43.858;25.974;2023-04-03T04:24:49;100443.88;;;13.60;51.77
42169;BME280;27838;43.858;25.974;2023-04-03T04:27:15;100445.44;;;13.72;51.31
42169;BME280;27838;43.858;25.974;2023-04-03T04:29:42;100448.72;;;13.82;51.20
42169;BME280;27838;43.858;25.974;2023-04-03T04:32:08;100455.53;;;13.92;51.02
42169;BME280;27838;43.858;25.974;2023-04-03T04:34:35;100448.66;;;13.86;50.77
42169;BME280;27838;43.858;25.974;2023-04-03T04:37:01;100458.28;;;13.86;50.99
42169;BME280;27838;43.858;25.974;2023-04-03T04:39:28;100469.63;;;13.86;50.62
42169;BME280;27838;43.858;25.974;2023-04-03T04:41:55;100471.38;;;13.86;51.07
42169;BME280;27838;43.858;25.974;2023-04-03T04:44:21;100466.97;;;13.88;51.21
42169;BME280;27838;43.858;25.974;2023-04-03T04:46:48;100466.78;;;13.98;51.12
42169;BME280;27838;43.858;25.974;2023-04-03T04:49:14;100469.13;;;14.12;50.70
42169;BME280;27838;43.858;25.974;2023-04-03T04:51:41;100478.47;;;14.26;50.95
42169;BME280;27838;43.858;25.974;2023-04-03T04:54:08;100481.81;;;14.34;50.87
42169;BME280;27838;43.858;25.974;2023-04-03T04:56:34;100478.22;;;14.40;50.37
42169;BME280;27838;43.858;25.974;2023-04-03T04:59:01;100469.31;;;14.48;49.82
42169;BME280;27838;43.858;25.974;2023-04-03T05:01:30;100470.00;;;14.57;49.92
42169;BME280;27838;43.858;25.974;2023-04-03T05:03:57;100473.38;;;14.65;50.24
42169;BME280;27838;43.858;25.974;2023-04-03T05:06:24;100481.13;;;14.71;50.15
42169;BME280;27838;43.858;25.974;2023-04-03T05:08:50;100465.47;;;14.68;50.20
42169;BME280;27838;43.858;25.974;2023-04-03T05:11:17;100472.31;;;14.75;49.95
42169;BME280;27838;43.858;25.974;2023-04-03T05:13:43;100474.94;;;14.75;50.35
42169;BME280;27838;43.858;25.974;2023-04-03T05:16:10;100478.44;;;14.74;50.85
42169;BME280;27838;43.858;25.974;2023-04-03T05:18:37;100476.47;;;14.85;51.06
42169;BME280;27838;43.858;25.974;2023-04-03T05:21:04;100484.09;;;14.96;50.42
42169;BME280;27838;43.858;25.974;2023-04-03T05:23:31;100480.38;;;15.06;50.53
42169;BME280;27838;43.858;25.974;2023-04-03T05:25:57;100483.38;;;15.27;49.89
42169;BME280;27838;43.858;25.974;2023-04-03T05:28:24;100497.25;;;15.34;49.28
42169;BME280;27838;43.858;25.974;2023-04-03T05:30:55;100500.75;;;15.34;49.17
42169;BME280;27838;43.858;25.974;2023-04-03T05:33:22;100506.63;;;15.44;49.09
42169;BME280;27838;43.858;25.974;2023-04-03T05:35:49;100506.41;;;15.53;49.34
42169;BME280;27838;43.858;25.974;2023-04-03T05:38:15;100514.75;;;15.71;48.86
42169;BME280;27838;43.858;25.974;2023-04-03T05:40:42;100509.41;;;15.74;48.02
42169;BME280;27838;43.858;25.974;2023-04-03T05:43:09;100510.41;;;15.70;48.46
42169;BME280;27838;43.858;25.974;2023-04-03T05:45:35;100513.81;;;15.75;48.38
42169;BME280;27838;43.858;25.974;2023-04-03T05:48:02;100523.09;;;15.88;47.90
42169;BME280;27838;43.858;25.974;2023-04-03T05:50:29;100518.47;;;15.98;47.96
42169;BME280;27838;43.858;25.974;2023-04-03T05:52:57;100524.44;;;16.04;48.45
42169;BME280;27838;43.858;25.974;2023-04-03T05:55:25;100528.47;;;16.18;47.38
42169;BME280;27838;43.858;25.974;2023-04-03T05:57:51;100525.63;;;16.27;47.15
42169;BME280;27838;43.858;25.974;2023-04-03T06:00:18;100530.94;;;16.24;47.18
42169;BME280;27838;43.858;25.974;2023-04-03T06:02:46;100531.72;;;16.28;47.43
42169;BME280;27838;43.858;25.974;2023-04-03T06:05:12;100544.06;;;16.26;46.82
42169;BME280;27838;43.858;25.974;2023-04-03T06:07:40;100544.00;;;16.29;46.94
42169;BME280;27838;43.858;25.974;2023-04-03T06:10:07;100550.81;;;16.36;47.51
42169;BME280;27838;43.858;25.974;2023-04-03T06:12:34;100549.91;;;16.35;46.86
42169;BME280;27838;43.858;25.974;2023-04-03T06:15:01;100545.50;;;16.37;46.28
42169;BME280;27838;43.858;25.974;2023-04-03T06:17:27;100557.56;;;16.46;46.35
42169;BME280;27838;43.858;25.974;2023-04-03T06:19:54;100561.00;;;16.48;45.42
42169;BME280;27838;43.858;25.974;2023-04-03T06:22:23;100566.22;;;16.50;45.61
42169;BME280;27838;43.858;25.974;2023-04-03T06:24:50;100581.16;;;16.48;45.90
42169;BME280;27838;43.858;25.974;2023-04-03T06:27:17;100584.63;;;16.50;46.07
42169;BME280;27838;43.858;25.974;2023-04-03T06:29:44;100583.69;;;16.52;46.15
42169;BME280;27838;43.858;25.974;2023-04-03T06:32:10;100576.38;;;16.64;46.58
42169;BME280;27838;43.858;25.974;2023-04-03T06:34:37;100578.56;;;16.79;46.70
42169;BME280;27838;43.858;25.974;2023-04-03T06:37:04;100584.38;;;16.92;46.57
42169;BME280;27838;43.858;25.974;2023-04-03T06:39:30;100586.59;;;17.07;45.46
42169;BME280;27838;43.858;25.974;2023-04-03T06:41:57;100590.53;;;17.22;44.68
42169;BME280;27838;43.858;25.974;2023-04-03T06:44:24;100593.06;;;17.25;45.84
42169;BME280;27838;43.858;25.974;2023-04-03T06:46:51;100588.75;;;17.23;45.25
42169;BME280;27838;43.858;25.974;2023-04-03T06:49:19;100579.06;;;17.25;44.61
42169;BME280;27838;43.858;25.974;2023-04-03T06:51:46;100588.63;;;17.27;44.65
42169;BME280;27838;43.858;25.974;2023-04-03T06:54:13;100589.38;;;17.31;44.46
42169;BME280;27838;43.858;25.974;2023-04-03T06:56:40;100597.97;;;17.38;44.52
42169;BME280;27838;43.858;25.974;2023-04-03T06:59:06;100598.78;;;17.40;44.36
42169;BME280;27838;43.858;25.974;2023-04-03T07:01:34;100603.19;;;17.39;44.06
42169;BME280;27838;43.858;25.974;2023-04-03T07:04:01;100596.09;;;17.41;44.80
42169;BME280;27838;43.858;25.974;2023-04-03T07:06:28;100603.56;;;17.27;45.12
42169;BME280;27838;43.858;25.974;2023-04-03T07:08:58;100592.38;;;16.89;45.33
42169;BME280;27838;43.858;25.974;2023-04-03T07:11:25;100601.16;;;16.88;46.70
42169;BME280;27838;43.858;25.974;2023-04-03T07:13:52;100599.50;;;16.85;46.71
42169;BME280;27838;43.858;25.974;2023-04-03T07:16:19;100612.31;;;16.63;46.93
42169;BME280;27838;43.858;25.974;2023-04-03T07:18:46;100613.69;;;16.45;47.60
42169;BME280;27838;43.858;25.974;2023-04-03T07:21:13;100604.94;;;16.45;47.73
42169;BME280;27838;43.858;25.974;2023-04-03T07:23:39;100605.69;;;16.50;47.88
42169;BME280;27838;43.858;25.974;2023-04-03T07:26:06;100599.31;;;16.58;47.77
42169;BME280;27838;43.858;25.974;2023-04-03T07:28:33;100607.75;;;16.70;47.17
42169;BME280;27838;43.858;25.974;2023-04-03T07:31:05;100600.53;;;16.78;47.25
42169;BME280;27838;43.858;25.974;2023-04-03T07:33:33;100601.16;;;16.88;47.25
42169;BME280;27838;43.858;25.974;2023-04-03T07:36:01;100619.53;;;16.89;46.41
42169;BME280;27838;43.858;25.974;2023-04-03T07:38:28;100617.88;;;16.87;46.58
42169;BME280;27838;43.858;25.974;2023-04-03T07:40:54;100613.31;;;16.93;46.66
42169;BME280;27838;43.858;25.974;2023-04-03T07:43:21;100617.56;;;16.97;46.78
42169;BME280;27838;43.858;25.974;2023-04-03T07:45:50;100617.41;;;17.04;46.34
42169;BME280;27838;43.858;25.974;2023-04-03T07:48:19;100619.91;;;17.08;46.02
42169;BME280;27838;43.858;25.974;2023-04-03T07:50:46;100613.94;;;17.02;46.28
42169;BME280;27838;43.858;25.974;2023-04-03T07:53:13;100626.19;;;17.03;46.17
42169;BME280;27838;43.858;25.974;2023-04-03T07:55:40;100632.25;;;17.06;46.35
42169;BME280;27838;43.858;25.974;2023-04-03T07:58:10;100628.59;;;17.10;46.59
42169;BME280;27838;43.858;25.974;2023-04-03T08:00:38;100622.44;;;17.11;46.12
42169;BME280;27838;43.858;25.974;2023-04-03T08:03:06;100636.47;;;17.12;46.74
42169;BME280;27838;43.858;25.974;2023-04-03T08:05:41;100626.59;;;17.20;46.71
42169;BME280;27838;43.858;25.974;2023-04-03T08:08:08;100627.34;;;17.24;46.82
42169;BME280;27838;43.858;25.974;2023-04-03T08:10:35;100626.31;;;17.29;46.94
42169;BME280;27838;43.858;25.974;2023-04-03T08:13:03;100629.63;;;17.36;46.90
42169;BME280;27838;43.858;25.974;2023-04-03T08:15:30;100637.03;;;17.53;46.52
42169;BME280;27838;43.858;25.974;2023-04-03T08:17:58;100622.31;;;17.46;46.25
42169;BME280;27838;43.858;25.974;2023-04-03T08:20:26;100632.72;;;17.50;46.42
42169;BME280;27838;43.858;25.974;2023-04-03T08:22:52;100624.59;;;17.58;46.84
42169;BME280;27838;43.858;25.974;2023-04-03T08:25:19;100627.78;;;17.68;46.67
42169;BME280;27838;43.858;25.974;2023-04-03T08:27:46;100625.22;;;17.65;47.05
42169;BME280;27838;43.858;25.974;2023-04-03T08:30:13;100616.69;;;17.58;46.96
42169;BME280;27838;43.858;25.974;2023-04-03T08:32:40;100622.56;;;17.66;46.92
42169;BME280;27838;43.858;25.974;2023-04-03T08:35:08;100622.50;;;17.68;46.61
42169;BME280;27838;43.858;25.974;2023-04-03T08:37:36;100610.78;;;17.78;46.75
42169;BME280;27838;43.858;25.974;2023-04-03T08:40:07;100606.13;;;17.58;47.00
42169;BME280;27838;43.858;25.974;2023-04-03T08:48:23;100602.19;;;17.43;46.78
42169;BME280;27838;43.858;25.974;2023-04-03T08:50:54;100607.75;;;17.62;47.24
42169;BME280;27838;43.858;25.974;2023-04-03T08:53:23;100600.22;;;17.78;47.13
42169;BME280;27838;43.858;25.974;2023-04-03T08:55:53;100598.16;;;17.89;46.84
42169;BME280;27838;43.858;25.974;2023-04-03T08:58:22;100591.72;;;17.98;46.92
42169;BME280;27838;43.858;25.974;2023-04-03T09:00:52;100586.97;;;18.08;46.62
42169;BME280;27838;43.858;25.974;2023-04-03T09:03:21;100576.25;;;18.14;46.74
42169;BME280;27838;43.858;25.974;2023-04-03T09:06:05;100573.28;;;18.23;46.68
42169;BME280;27838;43.858;25.974;2023-04-03T09:08:40;100566.22;;;18.24;46.45
42169;BME280;27838;43.858;25.974;2023-04-03T09:13:57;100585.44;;;18.27;46.57
42169;BME280;27838;43.858;25.974;2023-04-03T09:19:17;100561.47;;;18.35;46.53
42169;BME280;27838;43.858;25.974;2023-04-03T09:21:46;100561.97;;;18.45;46.27
42169;BME280;27838;43.858;25.974;2023-04-03T09:24:15;100550.72;;;18.40;46.02
42169;BME280;27838;43.858;25.974;2023-04-03T09:26:48;100555.00;;;18.44;45.94
42169;BME280;27838;43.858;25.974;2023-04-03T09:29:20;100549.00;;;18.39;46.27
42169;BME280;27838;43.858;25.974;2023-04-03T09:31:50;100562.25;;;18.37;46.04
42169;BME280;27838;43.858;25.974;2023-04-03T09:34:43;100563.09;;;18.38;45.91
42169;BME280;27838;43.858;25.974;2023-04-03T09:37:08;100561.56;;;18.32;46.10
42169;BME280;27838;43.858;25.974;2023-04-03T09:40:29;100572.06;;;18.34;46.37
42169;BME280;27838;43.858;25.974;2023-04-03T09:43:00;100571.31;;;18.30;46.41
42169;BME280;27838;43.858;25.974;2023-04-03T09:45:32;100564.28;;;18.29;46.43
42169;BME280;27838;43.858;25.974;2023-04-03T09:50:53;100566.34;;;18.21;46.79
42169;BME280;27838;43.858;25.974;2023-04-03T09:55:55;100572.97;;;18.33;46.43
42169;BME280;27838;43.858;25.974;2023-04-03T09:58:38;100583.31;;;18.39;46.23
42169;BME280;27838;43.858;25.974;2023-04-03T10:01:27;100575.16;;;18.45;45.89
42169;BME280;27838;43.858;25.974;2023-04-03T10:04:13;100570.66;;;18.48;45.96
42169;BME280;27838;43.858;25.974;2023-04-03T10:06:41;100576.63;;;18.54;45.73
42169;BME280;27838;43.858;25.974;2023-04-03T10:14:26;100562.97;;;18.66;45.70
42169;BME280;27838;43.858;25.974;2023-04-03T10:23:02;100568.63;;;18.82;45.61
42169;BME280;27838;43.858;25.974;2023-04-03T10:28:30;100555.66;;;18.74;45.35
42169;BME280;27838;43.858;25.974;2023-04-03T10:33:51;100553.53;;;18.85;45.18
42169;BME280;27838;43.858;25.974;2023-04-03T10:45:15;100544.69;;;19.32;44.57
42169;BME280;27838;43.858;25.974;2023-04-03T10:48:00;100528.22;;;19.48;43.02
42169;BME280;27838;43.858;25.974;2023-04-03T10:53:24;100534.03;;;19.57;41.58
42169;BME280;27838;43.858;25.974;2023-04-03T10:58:34;100528.47;;;19.63;42.78
42169;BME280;27838;43.858;25.974;2023-04-03T11:01:19;100537.34;;;19.62;43.38
42169;BME280;27838;43.858;25.974;2023-04-03T11:03:53;100532.91;;;19.63;43.34
42169;BME280;27838;43.858;25.974;2023-04-03T11:06:24;100529.47;;;19.61;43.25
42169;BME280;27838;43.858;25.974;2023-04-03T11:09:11;100535.38;;;19.68;42.52
42169;BME280;27838;43.858;25.974;2023-04-03T11:11:43;100521.69;;;19.80;42.91
42169;BME280;27838;43.858;25.974;2023-04-03T11:14:31;100516.72;;;19.93;42.39
42169;BME280;27838;43.858;25.974;2023-04-03T11:20:06;100516.06;;;20.08;41.76
42169;BME280;27838;43.858;25.974;2023-04-03T11:22:41;100516.88;;;20.10;41.46
42169;BME280;27838;43.858;25.974;2023-04-03T11:27:44;100507.78;;;20.16;41.52
42169;BME280;27838;43.858;25.974;2023-04-03T11:30:30;100509.78;;;20.11;41.18
42169;BME280;27838;43.858;25.974;2023-04-03T11:35:27;100497.88;;;20.00;41.76
42169;BME280;27838;43.858;25.974;2023-04-03T11:37:54;100494.38;;;20.00;41.44
42169;BME280;27838;43.858;25.974;2023-04-03T11:40:25;100490.81;;;20.01;41.44
42169;BME280;27838;43.858;25.974;2023-04-03T11:43:02;100487.22;;;20.02;41.23
42169;BME280;27838;43.858;25.974;2023-04-03T11:45:32;100486.31;;;20.03;40.87
42169;BME280;27838;43.858;25.974;2023-04-03T11:53:37;100481.34;;;20.16;41.36
42169;BME280;27838;43.858;25.974;2023-04-03T12:04:16;100462.09;;;19.92;41.38
42169;BME280;27838;43.858;25.974;2023-04-03T12:09:26;100468.56;;;19.85;42.18
42169;BME280;27838;43.858;25.974;2023-04-03T12:11:55;100457.47;;;19.76;42.75
42169;BME280;27838;43.858;25.974;2023-04-03T12:14:24;100458.88;;;19.85;42.70
42169;BME280;27838;43.858;25.974;2023-04-03T12:16:53;100449.22;;;19.84;42.86
42169;BME280;27838;43.858;25.974;2023-04-03T12:19:39;100440.19;;;19.88;42.67
42169;BME280;27838;43.858;25.974;2023-04-03T12:22:18;100442.66;;;19.93;42.50
42169;BME280;27838;43.858;25.974;2023-04-03T12:24:51;100448.63;;;19.98;42.61
42169;BME280;27838;43.858;25.974;2023-04-03T12:30:13;100440.69;;;19.98;42.32
42169;BME280;27838;43.858;25.974;2023-04-03T12:35:54;100425.47;;;19.83;42.67
42169;BME280;27838;43.858;25.974;2023-04-03T12:46:51;100448.97;;;19.68;43.31
42169;BME280;27838;43.858;25.974;2023-04-03T12:49:38;100445.53;;;19.66;43.69
42169;BME280;27838;43.858;25.974;2023-04-03T12:54:55;100449.88;;;19.67;43.18
42169;BME280;27838;43.858;25.974;2023-04-03T12:57:26;100452.53;;;19.67;43.18
42169;BME280;27838;43.858;25.974;2023-04-03T12:59:54;100457.88;;;19.66;43.41
42169;BME280;27838;43.858;25.974;2023-04-03T13:02:29;100458.59;;;19.69;43.32
42169;BME280;27838;43.858;25.974;2023-04-03T13:04:58;100439.53;;;19.62;43.14
42169;BME280;27838;43.858;25.974;2023-04-03T13:07:34;100448.91;;;19.70;43.04
42169;BME280;27838;43.858;25.974;2023-04-03T13:12:45;100454.38;;;19.65;43.11
42169;BME280;27838;43.858;25.974;2023-04-03T13:15:18;100455.63;;;19.56;43.33
42169;BME280;27838;43.858;25.974;2023-04-03T13:17:45;100449.72;;;19.50;43.66
42169;BME280;27838;43.858;25.974;2023-04-03T13:22:51;100446.00;;;19.33;43.57
42169;BME280;27838;43.858;25.974;2023-04-03T13:25:19;100446.81;;;19.35;44.01
42169;BME280;27838;43.858;25.974;2023-04-03T13:27:48;100447.06;;;19.29;44.23
42169;BME280;27838;43.858;25.974;2023-04-03T13:30:36;100443.81;;;19.22;45.06
42169;BME280;27838;43.858;25.974;2023-04-03T13:33:06;100444.84;;;19.18;45.81
42169;BME280;27838;43.858;25.974;2023-04-03T13:38:05;100426.78;;;19.08;46.16
42169;BME280;27838;43.858;25.974;2023-04-03T13:40:32;100430.88;;;19.15;46.40
42169;BME280;27838;43.858;25.974;2023-04-03T13:43:06;100421.16;;;19.17;46.50
42169;BME280;27838;43.858;25.974;2023-04-03T13:45:57;100427.28;;;19.17;46.57
42169;BME280;27838;43.858;25.974;2023-04-03T13:48:24;100423.41;;;19.04;46.71
42169;BME280;27838;43.858;25.974;2023-04-03T13:50:58;100426.97;;;19.03;46.82
42169;BME280;27838;43.858;25.974;2023-04-03T13:53:26;100420.88;;;19.01;47.09
42169;BME280;27838;43.858;25.974;2023-04-03T13:59:02;100421.06;;;18.96;47.73
42169;BME280;27838;43.858;25.974;2023-04-03T14:06:47;100422.03;;;18.94;47.75
42169;BME280;27838;43.858;25.974;2023-04-03T14:09:15;100423.94;;;18.90;48.17
42169;BME280;27838;43.858;25.974;2023-04-03T14:11:43;100416.28;;;18.84;48.33
42169;BME280;27838;43.858;25.974;2023-04-03T14:14:36;100421.97;;;18.95;48.37
42169;BME280;27838;43.858;25.974;2023-04-03T14:17:22;100428.31;;;18.91;48.70
42169;BME280;27838;43.858;25.974;2023-04-03T14:19:51;100425.41;;;18.97;48.49
42169;BME280;27838;43.858;25.974;2023-04-03T14:22:35;100431.81;;;18.92;48.36
42169;BME280;27838;43.858;25.974;2023-04-03T14:25:02;100427.53;;;18.89;48.27
42169;BME280;27838;43.858;25.974;2023-04-03T14:27:34;100429.53;;;18.82;48.57
42169;BME280;27838;43.858;25.974;2023-04-03T14:30:07;100427.97;;;18.77;48.58
42169;BME280;27838;43.858;25.974;2023-04-03T14:32:34;100416.94;;;18.65;48.79
42169;BME280;27838;43.858;25.974;2023-04-03T14:35:01;100430.25;;;18.62;48.97
42169;BME280;27838;43.858;25.974;2023-04-03T14:37:30;100426.25;;;18.52;48.98
42169;BME280;27838;43.858;25.974;2023-04-03T14:39:59;100426.94;;;18.57;49.29
42169;BME280;27838;43.858;25.974;2023-04-03T14:42:32;100422.00;;;18.48;49.07
42169;BME280;27838;43.858;25.974;2023-04-03T14:45:00;100429.97;;;18.46;49.32
42169;BME280;27838;43.858;25.974;2023-04-03T14:47:29;100418.69;;;18.43;49.40